Akraberg, Faroe Islands

1:48 PM WEST on July 27, 2016 (GMT +0100)
Vagar | | Change Station

Elev 279 ft 62.07 °N, 7.28 °W | Updated 58 minutes ago

Mostly Cloudy
Mostly Cloudy
55 °F
Feels Like 55 °F
N
13
Wind Variable Wind from NW

Today
High -- | Low -- °F
--% Chance of Precip.
Yesterday
High -- | Low -- °F
Precip. -- in
Pressure 29.65 in
Visibility 6.2 miles
Clouds Few 100 ft
Mostly Cloudy 500 ft
Dew Point 54 °F
Humidity 94%
Rainfall 0.00 in
Snow Depth Not available.
4:45 AM 10:18 PM
Last Quarter, 43% visible
METAR EKVG 271150Z 32011KT 9999 VCSH FEW001 BKN005 13/12 Q1004 RMK WIND 850FT 34008G20KT 310V050
Pressure 29.65 in
Visibility 6.2 miles
Clouds Few 100 ft
Mostly Cloudy 500 ft
Dew Point 54 °F
Humidity 94%
Rainfall 0.00 in
Snow Depth Not available.
4:45 AM 10:18 PM
Last Quarter, 43% visible
METAR EKVG 271150Z 32011KT 9999 VCSH FEW001 BKN005 13/12 Q1004 RMK WIND 850FT 34008G20KT 310V050

10-Day Weather Forecast

No radar image for this location.
×

Almanac

Astronomy

Jul. 27, 2016 Rise Set
Actual Time
Civil Twilight
Nautical Twilight
Astronomical Twilight
Moon
Length of Visible Light
Length of Day
Tomorrow will be .
, % of the Moon is Illuminated

Today's Extremes

Country Highs Country Lows

Community

WunderPhotos

Upload Photos

1,927,841 photos uploaded!

WunderBlog® & News

Nearby

Air Quality

  Air Quality AQ Index Pollutant
Not available.

Snow Depth

Station Depth Elevation

Earthquake Activity

City Distance Mag. Time & Date
Minimum magnitude displayed is 2.5.

Coastal Water Temperatures

Place Temperature

Stations

Nearby Weather Stations

Station Location Temp. Windchill Dew Point Humidity Wind Precip. Elev Updated Type